Airfield :
LOGIN :

Register | Disclaimer

   EN    FR    IT 

 










Legend :    VFR   Marginal VFR   IFR   Intensive IFR   Very Intensive IFR
Visi :
Ceiling :
>= 8 km
>= 3000ft
5 to 8 km
1000 to 3000 ft
1500m to 5 km
500 to 1000 ft
800 to 1500m
200 to 500 ft
< 800m
< 200 ft
Symbols :   Thunderstorms  Fog  Heavy snow  Heavy precipitations  Wind > 20 kt
SIGMETs :     Misc.  Thunderstorms  Icing  Turbulence  Mountain Waves  Volcanic Ashes






- Airport Elevation : 170 ft
- IATA code : KRP


EKKA - Karup

CURRENT METAR :
  • 092120Z AUTO 30009KT 9999 NCD 02/M01 Q1006

EXPIRED METARs :
  • 092050Z AUTO 29009KT 9999 NCD 02/M01 Q1005
  • 092020Z AUTO 29009KT 9999 NCD 02/M01 Q1004
  • 091950Z AUTO 28009KT 9999 FEW062/// 01/M01 Q1003
  • 091920Z AUTO 29007KT 9999 NCD 02/M01 Q1002
  • 091850Z AUTO 29006KT 9999 FEW058/// 02/M01 Q1001

TAF TAF EKKA
Valid from the 09 at 21:00 until the 10 at 21:00 UTC


092021Z 0921/1021 30010KT 9999 SCT030
BECMG 0922/1001 28005KT
BECMG 1008/1011 18012KT
BECMG 1015/1018 18018G28KT
BECMG 1018/1021 18020G35KT



MET'MAP, your aeronautical weather chart ! - Copyright ORBIFLY December 2007 - Disclaimer

ORBIFLY MET'MAP TEAM :

Programming & Development : Alexandra Zaïnal
Concept & original design : Baudouin d'Aumeries
Assistance for programming : Marc-Olivier Méhu
Technical & hardware support : Manuel Goepfert

Contact : metmap@orbifly.com




SOURCES & CREDITS :

   NOAA